createdAt,value
2022-09-18T00:02:34.693Z,79.89
2022-09-18T00:05:50.324Z,80.05
2022-09-18T00:09:02.026Z,80.03
2022-09-18T00:11:48.174Z,80.34
2022-09-18T00:14:52.075Z,80.62
2022-09-18T00:17:27.365Z,80.72
2022-09-18T00:19:55.486Z,80.89
2022-09-18T00:22:44.477Z,80.91
2022-09-18T00:25:26.538Z,81.13
2022-09-18T00:27:54.793Z,81.00
2022-09-18T00:30:30.439Z,81.03
2022-09-18T00:33:18.615Z,81.09
2022-09-18T00:35:50.364Z,80.95
2022-09-18T00:38:53.883Z,81.16
2022-09-18T00:41:53.134Z,81.14
2022-09-18T00:44:55.954Z,81.20
2022-09-18T00:48:07.712Z,81.10
2022-09-18T00:50:44.589Z,81.07
2022-09-18T00:53:58.198Z,81.16
2022-09-18T00:56:59.452Z,81.16
2022-09-18T00:59:55.395Z,81.38
2022-09-18T01:03:12.524Z,81.48
2022-09-18T01:06:06.457Z,81.65
2022-09-18T01:09:28.199Z,81.69
2022-09-18T01:13:17.663Z,81.61
2022-09-18T01:16:28.748Z,81.54
2022-09-18T01:19:54.246Z,81.15
2022-09-18T01:23:30.386Z,80.96
2022-09-18T01:26:48.571Z,80.68
2022-09-18T01:29:54.079Z,80.63
2022-09-18T01:32:59.063Z,80.78
2022-09-18T01:36:21.653Z,80.94
2022-09-18T01:39:39.408Z,80.92
2022-09-18T01:42:36.698Z,80.99
2022-09-18T01:45:28.779Z,81.16
2022-09-18T01:48:37.165Z,81.20
2022-09-18T01:51:43.135Z,81.16
2022-09-18T01:54:26.875Z,81.21
2022-09-18T01:57:00.236Z,81.08
2022-09-18T01:59:56.201Z,81.17
2022-09-18T02:02:49.217Z,81.19
2022-09-18T02:05:29.739Z,81.11
2022-09-18T02:08:23.860Z,81.09
2022-09-18T02:11:16.323Z,81.08
2022-09-18T02:14:25.988Z,81.07
2022-09-18T02:17:51.472Z,81.03
2022-09-18T02:20:38.750Z,80.71
2022-09-18T02:23:22.960Z,80.71
2022-09-18T02:26:18.643Z,80.64
2022-09-18T02:29:08.714Z,80.56
2022-09-18T02:31:50.356Z,80.47
2022-09-18T02:34:38.409Z,80.44
2022-09-18T02:37:48.775Z,80.67
2022-09-18T02:41:06.031Z,80.40
2022-09-18T02:44:21.197Z,79.98
2022-09-18T02:47:23.900Z,80.18
2022-09-18T02:50:52.663Z,80.13
2022-09-18T02:53:55.957Z,79.98
2022-09-18T02:57:17.407Z,79.96
2022-09-18T03:00:15.863Z,79.82
2022-09-18T03:03:07.649Z,79.72
2022-09-18T03:06:36.911Z,79.91
2022-09-18T03:09:34.791Z,79.88
2022-09-18T03:12:38.000Z,79.74
2022-09-18T03:15:47.117Z,79.71
2022-09-18T03:18:26.212Z,79.85
2022-09-18T03:21:32.637Z,79.85
2022-09-18T03:24:04.440Z,79.73
2022-09-18T03:26:38.630Z,79.81
2022-09-18T03:29:29.902Z,79.74
2022-09-18T03:32:22.023Z,79.53
2022-09-18T03:34:57.241Z,79.65
2022-09-18T03:37:51.792Z,79.97
2022-09-18T03:40:27.759Z,79.89
2022-09-18T03:43:09.303Z,79.59
2022-09-18T03:45:43.407Z,79.78
2022-09-18T03:48:15.524Z,79.61
2022-09-18T03:50:52.920Z,79.85
2022-09-18T03:53:27.698Z,79.82
2022-09-18T03:56:49.368Z,79.90
2022-09-18T03:59:46.827Z,80.97
2022-09-18T04:02:46.431Z,81.78
2022-09-18T04:06:03.017Z,82.47
2022-09-18T04:09:26.067Z,82.41
2022-09-18T04:12:00.400Z,82.75
2022-09-18T04:14:36.890Z,82.89
2022-09-18T04:17:50.855Z,82.88
2022-09-18T04:20:42.012Z,82.82
2022-09-18T04:23:36.740Z,82.90
2022-09-18T04:26:27.145Z,82.73
2022-09-18T04:29:33.291Z,83.05
2022-09-18T04:32:04.284Z,83.21
2022-09-18T04:34:56.045Z,83.11
2022-09-18T04:37:27.647Z,82.89
2022-09-18T04:40:23.574Z,83.07
2022-09-18T04:43:26.521Z,83.17
2022-09-18T04:46:16.352Z,83.07
2022-09-18T04:49:00.653Z,82.99
2022-09-18T04:51:41.871Z,83.22
2022-09-18T04:54:16.789Z,83.59
2022-09-18T04:57:11.588Z,83.92
2022-09-18T04:59:53.902Z,84.46
2022-09-18T05:02:44.422Z,84.94
2022-09-18T05:05:41.178Z,84.82
2022-09-18T05:08:25.086Z,84.71
2022-09-18T05:10:53.253Z,85.13
2022-09-18T05:13:41.572Z,85.37
2022-09-18T05:16:26.528Z,85.70
2022-09-18T05:19:43.386Z,85.89
2022-09-18T05:22:38.063Z,86.21
2022-09-18T05:25:11.910Z,86.59
2022-09-18T05:28:24.470Z,86.78
2022-09-18T05:31:30.785Z,87.03
2022-09-18T05:34:22.130Z,87.09
2022-09-18T05:37:00.967Z,87.06
2022-09-18T05:39:51.579Z,87.17
2022-09-18T05:42:19.752Z,87.14
2022-09-18T05:44:47.893Z,87.18
2022-09-18T05:47:25.143Z,87.19
2022-09-18T05:49:57.863Z,87.02
2022-09-18T05:52:30.782Z,86.78
2022-09-18T05:55:18.662Z,86.86
2022-09-18T05:57:57.171Z,86.70
2022-09-18T06:00:52.477Z,86.47
2022-09-18T06:03:36.202Z,86.59
2022-09-18T06:06:26.440Z,86.52
2022-09-18T06:09:00.686Z,86.53
2022-09-18T06:11:55.299Z,86.86
2022-09-18T06:14:48.654Z,86.48
2022-09-18T06:17:20.663Z,86.81
2022-09-18T06:19:56.044Z,87.17
2022-09-18T06:22:43.947Z,87.20
2022-09-18T06:25:27.929Z,87.21
2022-09-18T06:28:28.347Z,86.95
2022-09-18T06:31:07.663Z,87.39
2022-09-18T06:34:07.398Z,87.31
2022-09-18T06:37:07.301Z,87.71
2022-09-18T06:39:56.017Z,87.59
2022-09-18T06:42:49.333Z,87.96
2022-09-18T06:46:07.535Z,88.05
2022-09-18T06:48:50.489Z,88.77
2022-09-18T06:51:18.946Z,88.87
2022-09-18T06:54:22.865Z,88.71
2022-09-18T06:57:18.142Z,88.45
2022-09-18T07:00:01.274Z,88.57
2022-09-18T07:02:35.996Z,88.51
2022-09-18T07:05:26.492Z,88.45
2022-09-18T07:08:00.586Z,88.61
2022-09-18T07:10:41.294Z,88.72
2022-09-18T07:13:14.579Z,88.55
2022-09-18T07:15:48.339Z,88.91
2022-09-18T07:18:16.502Z,88.56
2022-09-18T07:21:07.429Z,88.25
2022-09-18T07:23:44.227Z,88.07
2022-09-18T07:26:12.856Z,87.39
2022-09-18T07:28:45.176Z,87.34
2022-09-18T07:31:28.176Z,87.21
2022-09-18T07:34:10.832Z,86.70
2022-09-18T07:36:46.070Z,86.79
2022-09-18T07:39:57.547Z,86.85
2022-09-18T07:42:47.273Z,86.58
2022-09-18T07:45:20.195Z,86.45
2022-09-18T07:47:56.761Z,85.91
2022-09-18T07:53:21.651Z,85.97
2022-09-18T07:56:17.827Z,85.76
2022-09-18T07:58:54.912Z,85.97
2022-09-18T08:01:41.913Z,85.96
2022-09-18T08:04:15.272Z,85.57
2022-09-18T08:07:04.354Z,85.63
2022-09-18T08:09:55.914Z,84.85
2022-09-18T08:12:59.544Z,84.47
2022-09-18T08:16:00.474Z,84.35
2022-09-18T08:18:48.327Z,83.67
2022-09-18T08:21:45.350Z,84.01
2022-09-18T08:24:20.864Z,83.85
2022-09-18T08:27:03.607Z,83.49
2022-09-18T08:29:35.165Z,82.89
2022-09-18T08:32:16.255Z,82.98
2022-09-18T08:35:08.524Z,83.61
2022-09-18T08:37:51.012Z,83.43
2022-09-18T08:41:22.141Z,84.24
2022-09-18T08:44:07.315Z,86.19
2022-09-18T08:46:51.648Z,89.60
2022-09-18T08:49:47.132Z,91.67
2022-09-18T08:52:20.493Z,92.35
2022-09-18T08:55:23.765Z,93.30
2022-09-18T08:58:30.795Z,94.86
2022-09-18T09:01:11.401Z,96.80
2022-09-18T09:04:04.026Z,97.25
2022-09-18T09:06:51.788Z,98.58
2022-09-18T09:10:05.975Z,99.22
2022-09-18T09:13:28.674Z,99.93
2022-09-18T09:16:07.431Z,100.00
2022-09-18T09:19:01.657Z,100.00
2022-09-18T09:22:04.220Z,99.87
2022-09-18T09:24:41.461Z,99.90
2022-09-18T09:27:42.856Z,99.89
2022-09-18T09:30:36.021Z,100.00
2022-09-18T09:33:24.182Z,100.00
2022-09-18T09:36:22.505Z,100.00
2022-09-18T09:39:21.132Z,100.00
2022-09-18T09:41:58.791Z,100.00
2022-09-18T09:44:49.789Z,100.00
2022-09-18T09:47:27.712Z,100.00
2022-09-18T09:50:30.264Z,99.95
2022-09-18T09:53:12.167Z,100.00
2022-09-18T09:55:53.119Z,99.94
2022-09-18T09:58:59.939Z,99.52
2022-09-18T10:01:36.046Z,99.85
2022-09-18T10:04:29.104Z,100.00
2022-09-18T10:07:53.144Z,99.65
2022-09-18T10:11:03.046Z,99.97
2022-09-18T10:13:35.013Z,99.99
2022-09-18T10:16:18.125Z,100.00
2022-09-18T10:18:48.477Z,100.00
2022-09-18T10:21:24.661Z,100.00
2022-09-18T10:24:13.291Z,100.00
2022-09-18T10:26:52.172Z,100.00
2022-09-18T10:29:20.778Z,100.00
2022-09-18T10:32:13.130Z,100.00
2022-09-18T10:34:57.929Z,100.00
2022-09-18T10:37:32.465Z,100.00
2022-09-18T10:40:30.057Z,100.00
2022-09-18T10:43:03.007Z,100.00
2022-09-18T10:45:53.016Z,100.00
2022-09-18T10:48:33.039Z,99.85
2022-09-18T10:51:07.625Z,99.26
2022-09-18T10:53:47.449Z,99.53
2022-09-18T10:56:47.907Z,98.58
2022-09-18T10:59:35.531Z,99.26
2022-09-18T11:02:20.068Z,99.69
2022-09-18T11:04:57.798Z,99.51
2022-09-18T11:07:32.135Z,100.00
2022-09-18T11:10:29.029Z,99.85
2022-09-18T11:13:03.234Z,99.77
2022-09-18T11:15:53.147Z,99.98
2022-09-18T11:18:25.532Z,100.00
2022-09-18T11:20:58.374Z,100.00
2022-09-18T11:23:29.889Z,99.72
2022-09-18T11:26:19.988Z,99.74
2022-09-18T11:29:16.323Z,99.33
2022-09-18T11:31:53.179Z,99.80
2022-09-18T11:34:55.646Z,99.78
2022-09-18T11:37:33.801Z,99.82
2022-09-18T11:40:09.515Z,99.38
2022-09-18T11:42:45.178Z,99.39
2022-09-18T11:45:35.983Z,98.07
2022-09-18T11:48:35.235Z,97.68
2022-09-18T11:51:11.627Z,98.19
2022-09-18T11:53:45.040Z,96.39
2022-09-18T11:56:22.639Z,96.68
2022-09-18T11:58:58.847Z,95.53
2022-09-18T12:01:43.366Z,96.68
2022-09-18T12:07:56.295Z,93.63
2022-09-18T12:11:37.695Z,91.21
2022-09-18T12:14:47.327Z,91.19
2022-09-18T12:18:49.976Z,90.99
2022-09-18T12:22:27.136Z,88.58
2022-09-18T12:25:37.639Z,88.49
2022-09-18T12:29:05.415Z,89.01
2022-09-18T12:32:39.891Z,87.48
2022-09-18T12:35:53.990Z,84.95
2022-09-18T12:38:34.545Z,79.54
2022-09-18T12:42:07.667Z,80.19
2022-09-18T12:45:17.510Z,76.96
2022-09-18T12:49:33.802Z,78.21
2022-09-18T12:52:43.417Z,78.68
2022-09-18T12:55:58.673Z,78.50
2022-09-18T12:59:23.945Z,77.76
2022-09-18T13:02:29.543Z,77.64
2022-09-18T13:05:23.923Z,77.81
2022-09-18T13:08:18.827Z,71.33
2022-09-18T13:11:00.462Z,72.22
2022-09-18T13:13:43.854Z,72.88
2022-09-18T13:16:21.840Z,73.67
2022-09-18T13:18:58.652Z,76.07
2022-09-18T13:21:34.381Z,75.05
2022-09-18T13:24:04.607Z,74.10
2022-09-18T13:26:37.819Z,71.29
2022-09-18T13:29:46.719Z,64.93
2022-09-18T13:32:17.290Z,61.47
2022-09-18T13:35:02.770Z,55.40
2022-09-18T13:37:31.494Z,51.58
2022-09-18T13:40:10.113Z,50.95
2022-09-18T13:43:00.519Z,51.83
2022-09-18T13:45:38.782Z,51.44
2022-09-18T13:48:20.787Z,51.95
2022-09-18T13:50:59.755Z,51.43
2022-09-18T13:53:42.298Z,54.34
2022-09-18T13:56:15.481Z,53.40
2022-09-18T13:58:56.124Z,54.31
2022-09-18T14:01:44.652Z,54.34
2022-09-18T14:04:40.257Z,53.67
2022-09-18T14:07:16.816Z,52.98
2022-09-18T14:09:54.700Z,53.29
2022-09-18T14:12:32.015Z,54.30
2022-09-18T14:15:04.494Z,53.42
2022-09-18T14:17:37.103Z,51.92
2022-09-18T14:20:19.703Z,48.88
2022-09-18T14:22:51.234Z,46.31
2022-09-18T14:25:44.482Z,45.51
2022-09-18T14:28:14.665Z,45.41
2022-09-18T14:30:43.075Z,43.79
2022-09-18T14:33:19.442Z,45.32
2022-09-18T14:35:54.829Z,46.57
2022-09-18T14:38:26.667Z,47.05
2022-09-18T14:41:35.391Z,47.15
2022-09-18T14:44:19.146Z,48.23
2022-09-18T14:46:58.954Z,50.16
2022-09-18T14:49:46.245Z,50.97
2022-09-18T14:52:26.837Z,50.92
2022-09-18T14:55:00.791Z,51.13
2022-09-18T14:58:09.317Z,51.03
2022-09-18T15:00:38.715Z,50.98
2022-09-18T15:03:17.381Z,50.23
2022-09-18T15:05:52.919Z,49.99
2022-09-18T15:08:50.152Z,50.01
2022-09-18T15:11:20.967Z,50.21
2022-09-18T15:13:55.268Z,49.94
2022-09-18T15:16:33.169Z,49.50
2022-09-18T15:19:02.359Z,48.01
2022-09-18T15:21:35.225Z,48.35
2022-09-18T15:24:03.905Z,47.40
2022-09-18T15:26:55.513Z,46.85
2022-09-18T15:29:31.141Z,45.59
2022-09-18T15:32:04.075Z,45.51
2022-09-18T15:34:48.564Z,45.81
2022-09-18T15:37:27.309Z,45.25
2022-09-18T15:40:09.278Z,44.66
2022-09-18T15:42:51.216Z,43.41
2022-09-18T15:45:23.459Z,43.59
2022-09-18T15:47:53.807Z,43.41
2022-09-18T15:50:33.765Z,43.38
2022-09-18T15:53:24.562Z,43.21
2022-09-18T15:56:03.696Z,44.75
2022-09-18T15:58:47.015Z,45.80
2022-09-18T16:01:21.838Z,46.64
2022-09-18T16:04:06.694Z,46.77
2022-09-18T16:06:43.248Z,47.26
2022-09-18T16:09:28.931Z,47.86
2022-09-18T16:12:08.624Z,48.68
2022-09-18T16:14:58.702Z,48.90
2022-09-18T16:17:39.655Z,49.35
2022-09-18T16:20:34.382Z,50.14
2022-09-18T16:23:19.747Z,51.02
2022-09-18T16:26:07.121Z,51.73
2022-09-18T16:28:40.992Z,52.39
2022-09-18T16:31:11.353Z,53.06
2022-09-18T16:34:27.653Z,53.58
2022-09-18T16:36:59.572Z,54.31
2022-09-18T16:39:29.838Z,54.93
2022-09-18T16:42:00.954Z,55.42
2022-09-18T16:44:32.293Z,56.09
2022-09-18T16:47:11.593Z,56.57
2022-09-18T16:49:49.389Z,57.03
2022-09-18T16:52:21.033Z,57.40
2022-09-18T16:54:50.413Z,57.86
2022-09-18T16:57:25.205Z,58.58
2022-09-18T16:59:54.211Z,58.94
2022-09-18T17:02:25.930Z,59.52
2022-09-18T17:04:54.500Z,60.16
2022-09-18T17:07:22.733Z,60.61
2022-09-18T17:09:59.251Z,61.28
2022-09-18T17:12:43.306Z,61.30
2022-09-18T17:15:23.966Z,61.98
2022-09-18T17:18:04.410Z,62.28
2022-09-18T17:20:40.221Z,62.52
2022-09-18T17:23:08.493Z,62.87
2022-09-18T17:25:57.846Z,63.30
2022-09-18T17:28:27.978Z,63.58
2022-09-18T17:31:26.885Z,64.24
2022-09-18T17:34:01.072Z,64.11
2022-09-18T17:36:40.337Z,64.75
2022-09-18T17:39:10.702Z,64.75
2022-09-18T17:41:50.314Z,65.50
2022-09-18T17:44:20.887Z,66.01
2022-09-18T17:46:54.377Z,66.22
2022-09-18T17:49:25.691Z,66.71
2022-09-18T17:51:56.932Z,67.01
2022-09-18T17:54:28.590Z,68.27
2022-09-18T17:57:03.327Z,68.82
2022-09-18T17:59:38.313Z,69.66
2022-09-18T18:02:14.176Z,70.27
2022-09-18T18:04:45.055Z,70.52
2022-09-18T18:07:13.186Z,71.04
2022-09-18T18:09:41.270Z,71.29
2022-09-18T18:12:20.792Z,71.74
2022-09-18T18:14:49.061Z,71.90
2022-09-18T18:17:19.441Z,71.60
2022-09-18T18:20:00.290Z,72.20
2022-09-18T18:22:35.935Z,72.19
2022-09-18T18:25:06.130Z,72.14
2022-09-18T18:27:34.187Z,72.36
2022-09-18T18:30:02.351Z,73.00
2022-09-18T18:32:35.168Z,72.52
2022-09-18T18:35:03.147Z,72.52
2022-09-18T18:37:33.763Z,73.33
2022-09-18T18:40:13.304Z,73.34
2022-09-18T18:42:43.979Z,73.45
2022-09-18T18:45:16.399Z,74.03
2022-09-18T18:47:53.163Z,73.66
2022-09-18T18:50:42.811Z,74.40
2022-09-18T18:53:22.340Z,74.47
2022-09-18T18:55:51.585Z,74.51
2022-09-18T18:58:19.389Z,74.52
2022-09-18T19:00:50.650Z,75.23
2022-09-18T19:03:24.339Z,75.77
2022-09-18T19:06:06.223Z,76.23
2022-09-18T19:08:36.444Z,77.21
2022-09-18T19:11:06.737Z,77.74
2022-09-18T19:13:41.500Z,77.98
2022-09-18T19:16:10.461Z,78.35
2022-09-18T19:18:44.646Z,78.74
2022-09-18T19:21:12.993Z,79.21
2022-09-18T19:23:41.478Z,80.01
2022-09-18T19:26:15.131Z,80.22
2022-09-18T19:28:46.732Z,80.37
2022-09-18T19:31:14.899Z,80.61
2022-09-18T19:33:52.470Z,81.83
2022-09-18T19:36:23.761Z,82.18
2022-09-18T19:38:58.341Z,82.77
2022-09-18T19:41:55.935Z,83.54
2022-09-18T19:44:51.774Z,84.10
2022-09-18T19:47:46.604Z,84.39
2022-09-18T19:50:38.212Z,84.32
2022-09-18T19:53:53.501Z,85.03
2022-09-18T19:56:42.854Z,85.96
2022-09-18T19:59:27.265Z,85.86
2022-09-18T20:02:05.487Z,86.27
2022-09-18T20:04:42.343Z,86.23
2022-09-18T20:07:33.774Z,86.85
2022-09-18T20:10:23.378Z,86.49
2022-09-18T20:13:14.599Z,86.33
2022-09-18T20:16:19.642Z,86.41
2022-09-18T20:19:22.935Z,86.27
2022-09-18T20:21:54.059Z,85.78
2022-09-18T20:24:23.071Z,85.88
2022-09-18T20:26:57.319Z,86.17
2022-09-18T20:29:29.604Z,86.00
2022-09-18T20:32:09.238Z,85.77
2022-09-18T20:34:55.386Z,85.88
2022-09-18T20:37:29.488Z,85.87
2022-09-18T20:40:20.053Z,85.85
2022-09-18T20:42:58.240Z,85.84
2022-09-18T20:45:31.970Z,85.71
2022-09-18T20:48:07.064Z,85.64
2022-09-18T20:50:38.515Z,85.48
2022-09-18T20:53:31.377Z,85.61
2022-09-18T20:56:02.657Z,85.73
2022-09-18T20:58:32.602Z,85.51
2022-09-18T21:01:14.193Z,85.65
2022-09-18T21:03:56.723Z,85.28
2022-09-18T21:06:48.877Z,85.40
2022-09-18T21:09:30.899Z,85.33
2022-09-18T21:12:02.162Z,85.48
2022-09-18T21:14:45.656Z,85.24
2022-09-18T21:17:24.817Z,85.10
2022-09-18T21:19:53.796Z,85.10
2022-09-18T21:22:34.065Z,85.19
2022-09-18T21:25:08.018Z,85.40
2022-09-18T21:27:38.896Z,85.55
2022-09-18T21:30:13.313Z,85.56
2022-09-18T21:32:42.039Z,85.42
2022-09-18T21:35:10.201Z,85.43
2022-09-18T21:37:43.263Z,85.64
2022-09-18T21:40:15.271Z,85.62
2022-09-18T21:42:52.275Z,85.36
2022-09-18T21:45:25.963Z,85.41
2022-09-18T21:48:22.203Z,85.71
2022-09-18T21:50:53.532Z,85.69
2022-09-18T21:53:44.207Z,85.73
2022-09-18T21:56:20.885Z,85.58
2022-09-18T21:58:57.237Z,85.64
2022-09-18T22:01:39.124Z,86.14
2022-09-18T22:04:11.529Z,86.31
2022-09-18T22:07:02.093Z,86.06
2022-09-18T22:09:45.678Z,86.21
2022-09-18T22:12:28.671Z,86.60
2022-09-18T22:14:57.858Z,86.59
2022-09-18T22:17:38.427Z,86.58
2022-09-18T22:20:13.231Z,86.95
2022-09-18T22:22:43.749Z,87.02
2022-09-18T22:25:18.198Z,87.00
2022-09-18T22:27:52.604Z,86.92
2022-09-18T22:30:28.518Z,87.15
2022-09-18T22:33:07.595Z,87.04
2022-09-18T22:36:22.466Z,87.24
2022-09-18T22:39:08.072Z,87.21
2022-09-18T22:41:49.208Z,87.10
2022-09-18T22:44:46.899Z,86.98
2022-09-18T22:47:29.386Z,87.06
2022-09-18T22:50:22.547Z,86.92
2022-09-18T22:52:56.079Z,86.74
2022-09-18T22:55:27.697Z,86.88
2022-09-18T22:58:09.018Z,86.84
2022-09-18T23:01:09.624Z,87.00
2022-09-18T23:04:03.862Z,86.88
2022-09-18T23:06:42.086Z,86.71
2022-09-18T23:09:31.894Z,86.78
2022-09-18T23:12:13.545Z,86.70
2022-09-18T23:14:57.133Z,86.66
2022-09-18T23:17:46.214Z,86.63
2022-09-18T23:20:33.648Z,86.63
2022-09-18T23:23:28.380Z,86.53
2022-09-18T23:26:26.321Z,86.53
2022-09-18T23:29:02.658Z,86.41
2022-09-18T23:31:57.647Z,86.18
2022-09-18T23:34:37.287Z,86.35
2022-09-18T23:37:17.206Z,86.53
2022-09-18T23:40:45.960Z,86.65
2022-09-18T23:43:15.400Z,86.94
2022-09-18T23:45:57.527Z,86.71
2022-09-18T23:48:28.439Z,87.04
2022-09-18T23:51:13.516Z,87.03
2022-09-18T23:54:53.371Z,86.99
2022-09-18T23:57:36.041Z,86.90
